Time;durP1;ratioP1;P1;durP2;ratioP2;P2;SDS_P1;SDS_P2;PMS_P1;PMS_P2;Temp;Humidity;BMP_temperature;BMP_pressure;BME280_temperature;BME280_humidity;BME280_pressure;Samples;Min_cycle;Max_cycle;Signal;HPM_P1;HPM_P2
2021/01/12 00:02:47;;;;;;;66.45;36.53;;;22.60;27.50;;;;;;6094190;28;83245;-63
2021/01/12 00:05:48;;;;;;;66.05;36.78;;;22.60;27.60;;;;;;6100665;28;83146;-63
2021/01/12 00:08:48;;;;;;;69.82;37.50;;;22.60;27.70;;;;;;6104469;28;83309;-63
2021/01/12 00:11:49;;;;;;;67.18;36.80;;;22.60;27.70;;;;;;6101998;28;82975;-63
2021/01/12 00:14:49;;;;;;;62.53;33.90;;;22.60;27.70;;;;;;6090234;28;83088;-63
2021/01/12 00:17:50;;;;;;;66.93;35.75;;;22.60;27.60;;;;;;6102236;28;83986;-64
2021/01/12 00:20:50;;;;;;;66.15;35.08;;;22.50;27.80;;;;;;6100553;28;84141;-62
2021/01/12 00:23:51;;;;;;;60.45;34.10;;;22.50;27.50;;;;;;6103496;28;87227;-63
2021/01/12 00:26:51;;;;;;;64.57;33.90;;;22.60;27.80;;;;;;6101643;28;84115;-63
2021/01/12 00:29:52;;;;;;;60.25;33.97;;;22.50;27.90;;;;;;6095041;28;83475;-62
2021/01/12 00:32:52;;;;;;;65.68;34.72;;;22.50;27.50;;;;;;6102926;28;84862;-63
2021/01/12 00:35:53;;;;;;;63.03;33.85;;;22.50;27.80;;;;;;6101354;28;82887;-63
2021/01/12 00:38:53;;;;;;;61.95;33.55;;;22.50;27.70;;;;;;6098034;28;83493;-63
2021/01/12 00:41:54;;;;;;;62.15;33.33;;;22.50;27.60;;;;;;6097967;28;82975;-63
2021/01/12 00:44:54;;;;;;;62.83;34.45;;;22.50;27.60;;;;;;6091247;28;84527;-62
2021/01/12 00:47:55;;;;;;;62.88;32.70;;;22.50;27.30;;;;;;6100307;28;83519;-63
2021/01/12 00:50:55;;;;;;;62.33;33.00;;;22.50;28.40;;;;;;6100301;28;84188;-63
2021/01/12 00:53:56;;;;;;;65.05;33.58;;;22.40;27.90;;;;;;6102564;28;86706;-62
2021/01/12 00:56:56;;;;;;;64.07;32.97;;;22.40;27.60;;;;;;6102296;28;83486;-63
2021/01/12 00:59:57;;;;;;;59.88;33.63;;;22.40;27.80;;;;;;6100455;28;83118;-63
2021/01/12 01:02:57;;;;;;;59.05;32.35;;;22.40;27.90;;;;;;6101407;28;82942;-62
2021/01/12 01:05:58;;;;;;;68.30;34.45;;;22.40;27.60;;;;;;6099126;28;83266;-63
2021/01/12 01:08:58;;;;;;;63.97;33.38;;;22.40;27.70;;;;;;6103229;28;83323;-62
2021/01/12 01:11:59;;;;;;;61.28;33.45;;;22.40;27.60;;;;;;6100031;28;83152;-62
2021/01/12 01:14:59;;;;;;;62.28;34.78;;;22.30;27.50;;;;;;6098168;28;83311;-62
2021/01/12 01:18:00;;;;;;;63.72;33.50;;;22.30;27.50;;;;;;6099069;28;83400;-62
2021/01/12 01:21:00;;;;;;;62.63;33.88;;;22.30;27.50;;;;;;6100724;28;83340;-63
2021/01/12 01:24:01;;;;;;;66.95;35.20;;;22.30;27.70;;;;;;6101174;28;83019;-63
2021/01/12 01:27:01;;;;;;;64.88;34.65;;;22.30;28.10;;;;;;6090605;28;85945;-62
2021/01/12 01:30:02;;;;;;;61.00;31.58;;;22.30;27.60;;;;;;6101325;28;83598;-63
2021/01/12 01:33:02;;;;;;;63.38;33.72;;;22.30;27.60;;;;;;6099444;28;83059;-63
2021/01/12 01:36:03;;;;;;;64.53;33.97;;;22.30;27.60;;;;;;6111966;28;83927;-63
2021/01/12 01:39:03;;;;;;;72.40;34.08;;;22.30;27.40;;;;;;6088357;28;84118;-62
2021/01/12 01:42:04;;;;;;;66.55;35.75;;;22.20;27.40;;;;;;6098680;28;83496;-63
2021/01/12 01:45:04;;;;;;;65.45;34.20;;;22.20;27.30;;;;;;6114286;28;84228;-63
2021/01/12 01:48:05;;;;;;;59.25;33.30;;;22.20;27.20;;;;;;6100035;28;84559;-63
2021/01/12 01:51:06;;;;;;;62.85;33.28;;;22.20;27.40;;;;;;6095786;28;84630;-62
2021/01/12 01:54:07;;;;;;;56.33;31.05;;;22.20;27.40;;;;;;6100482;28;83394;-63
2021/01/12 01:57:07;;;;;;;62.67;34.45;;;22.20;27.70;;;;;;6096644;28;84526;-62
2021/01/12 02:00:08;;;;;;;58.78;32.28;;;22.20;27.40;;;;;;6098642;28;84384;-62
2021/01/12 02:03:09;;;;;;;63.20;33.90;;;22.20;27.50;;;;;;6100997;28;84645;-62
2021/01/12 02:06:09;;;;;;;58.00;31.63;;;22.20;27.30;;;;;;6099948;28;83405;-62
2021/01/12 02:09:10;;;;;;;59.00;32.28;;;22.20;27.40;;;;;;6099617;28;84217;-62
2021/01/12 02:12:10;;;;;;;57.75;33.25;;;22.20;27.50;;;;;;6099531;28;83429;-62
2021/01/12 02:15:11;;;;;;;60.90;31.92;;;22.20;27.40;;;;;;6113058;28;84066;-62
2021/01/12 02:18:11;;;;;;;55.53;31.25;;;22.20;27.20;;;;;;6099915;28;83789;-62
2021/01/12 02:21:12;;;;;;;60.70;32.25;;;22.20;27.50;;;;;;6098505;28;84467;-62
2021/01/12 02:24:12;;;;;;;57.88;30.95;;;22.20;27.50;;;;;;6100718;28;83925;-63
2021/01/12 02:27:13;;;;;;;53.40;30.23;;;22.10;27.60;;;;;;6100193;28;83286;-62
2021/01/12 02:30:13;;;;;;;50.25;28.33;;;22.10;27.80;;;;;;6098853;28;83178;-62
2021/01/12 02:33:14;;;;;;;51.38;28.95;;;22.20;27.90;;;;;;6099058;28;83341;-62
2021/01/12 02:36:14;;;;;;;53.42;28.65;;;22.10;27.90;;;;;;6098540;28;84178;-63
2021/01/12 02:39:15;;;;;;;51.08;27.98;;;22.10;27.90;;;;;;6097717;28;83957;-62
2021/01/12 02:42:15;;;;;;;53.35;28.98;;;22.10;28.10;;;;;;6099333;28;83164;-62
2021/01/12 02:45:16;;;;;;;56.88;29.52;;;22.10;28.10;;;;;;6101199;28;94395;-62
2021/01/12 02:48:18;;;;;;;56.75;29.23;;;22.10;28.00;;;;;;6098560;28;83384;-62
2021/01/12 02:51:18;;;;;;;49.55;28.08;;;22.10;27.80;;;;;;6112464;28;83198;-62
2021/01/12 02:54:19;;;;;;;53.80;30.27;;;22.10;27.90;;;;;;6097950;28;83744;-62
2021/01/12 02:57:19;;;;;;;57.65;29.40;;;22.10;27.80;;;;;;6098926;28;83206;-62
2021/01/12 03:00:20;;;;;;;49.15;27.63;;;22.10;27.90;;;;;;6093678;28;83657;-62
2021/01/12 03:03:20;;;;;;;51.70;28.27;;;22.10;28.00;;;;;;6098872;28;83677;-62
2021/01/12 03:06:21;;;;;;;50.67;27.90;;;22.10;28.10;;;;;;6097059;28;83585;-62
2021/01/12 03:09:21;;;;;;;51.20;26.85;;;22.10;28.10;;;;;;6099116;28;83631;-62
2021/01/12 03:12:22;;;;;;;51.35;28.20;;;22.10;28.50;;;;;;6099830;28;85595;-63
2021/01/12 03:15:22;;;;;;;50.13;28.98;;;22.10;28.00;;;;;;6095553;28;83502;-62
2021/01/12 03:18:23;;;;;;;50.28;27.27;;;22.00;27.90;;;;;;6092012;28;83574;-63
2021/01/12 03:21:23;;;;;;;51.28;27.75;;;22.10;28.00;;;;;;6098113;28;83432;-63
2021/01/12 03:24:24;;;;;;;48.83;25.73;;;22.10;28.00;;;;;;6099664;28;83718;-63
2021/01/12 03:27:24;;;;;;;50.20;25.60;;;22.10;28.00;;;;;;6103738;28;83063;-62
2021/01/12 03:30:25;;;;;;;44.75;25.15;;;22.10;27.90;;;;;;6102875;28;84411;-63
2021/01/12 03:33:25;;;;;;;48.67;24.27;;;22.10;28.00;;;;;;6102495;28;83622;-63
2021/01/12 03:36:26;;;;;;;48.33;25.80;;;22.10;28.00;;;;;;6097351;28;83692;-62
2021/01/12 03:39:26;;;;;;;48.42;25.75;;;22.10;27.90;;;;;;6100677;28;83744;-63
2021/01/12 03:42:27;;;;;;;44.75;24.55;;;22.10;27.80;;;;;;6082116;28;83243;-62
2021/01/12 03:45:27;;;;;;;45.75;24.20;;;22.10;27.90;;;;;;6100848;28;83121;-63
2021/01/12 03:48:28;;;;;;;45.92;24.92;;;22.00;27.90;;;;;;6095568;28;83971;-63
2021/01/12 03:51:28;;;;;;;45.38;24.40;;;22.00;27.80;;;;;;6092252;28;83600;-62
2021/01/12 03:54:29;;;;;;;49.13;24.27;;;22.00;27.80;;;;;;6095274;28;83026;-62
2021/01/12 03:57:30;;;;;;;45.15;24.10;;;22.00;27.90;;;;;;6100015;28;83419;-63
2021/01/12 04:00:30;;;;;;;44.53;24.25;;;22.00;27.90;;;;;;6104307;28;84099;-63
2021/01/12 04:03:31;;;;;;;43.33;24.75;;;22.00;27.90;;;;;;6087987;28;83260;-63
2021/01/12 04:06:31;;;;;;;46.80;25.48;;;22.00;28.00;;;;;;6098240;28;83450;-62
2021/01/12 04:09:32;;;;;;;49.03;25.92;;;22.00;27.90;;;;;;6098158;28;83189;-63
2021/01/12 04:12:32;;;;;;;46.65;24.60;;;22.00;27.90;;;;;;6101996;28;83766;-63
2021/01/12 04:15:33;;;;;;;46.42;24.85;;;21.90;27.90;;;;;;6101794;28;83503;-63
2021/01/12 04:18:34;;;;;;;45.28;24.95;;;21.90;27.80;;;;;;6102960;28;82978;-63
2021/01/12 04:21:34;;;;;;;48.25;26.20;;;21.90;27.90;;;;;;6096120;28;83601;-63
2021/01/12 04:24:35;;;;;;;42.88;24.63;;;21.90;27.80;;;;;;6099571;28;83966;-63
2021/01/12 04:27:35;;;;;;;48.38;24.77;;;21.90;27.70;;;;;;6086744;28;84266;-63
2021/01/12 04:30:36;;;;;;;44.45;25.30;;;21.90;27.80;;;;;;6102807;28;84995;-63
2021/01/12 04:33:36;;;;;;;48.72;25.70;;;21.90;27.70;;;;;;6100805;28;85061;-63
2021/01/12 04:36:37;;;;;;;47.38;24.98;;;21.90;27.70;;;;;;6097744;28;83436;-63
2021/01/12 04:39:37;;;;;;;46.00;25.45;;;21.90;27.60;;;;;;6091660;28;82996;-63
2021/01/12 04:42:38;;;;;;;47.28;24.33;;;21.90;27.70;;;;;;6098854;28;83686;-62
2021/01/12 04:45:39;;;;;;;48.00;25.98;;;21.90;27.70;;;;;;6103399;28;83467;-63
2021/01/12 04:48:39;;;;;;;45.78;26.15;;;21.90;27.50;;;;;;6102693;28;82998;-63
2021/01/12 04:51:40;;;;;;;50.95;26.20;;;21.90;27.70;;;;;;6100384;28;83203;-63
2021/01/12 04:54:40;;;;;;;42.88;23.65;;;21.80;27.80;;;;;;6097654;28;83567;-62
2021/01/12 04:57:41;;;;;;;45.50;25.13;;;21.90;28.20;;;;;;6100625;28;83269;-63
2021/01/12 05:00:41;;;;;;;48.67;24.48;;;21.90;27.40;;;;;;6095886;28;84267;-62
2021/01/12 05:03:42;;;;;;;45.42;25.30;;;21.90;27.90;;;;;;6096141;28;84079;-62
2021/01/12 05:06:42;;;;;;;48.78;25.60;;;22.00;26.80;;;;;;6108447;28;83555;-62
2021/01/12 05:09:43;;;;;;;48.75;26.33;;;22.10;26.60;;;;;;6091907;28;83606;-62
2021/01/12 05:12:43;;;;;;;46.00;25.77;;;22.20;26.60;;;;;;6097380;28;83664;-62
2021/01/12 05:15:44;;;;;;;51.17;27.00;;;22.20;26.40;;;;;;6094993;28;85295;-62
2021/01/12 05:18:44;;;;;;;53.95;27.45;;;22.30;26.50;;;;;;6101613;28;82829;-63
2021/01/12 05:21:45;;;;;;;50.47;27.33;;;22.30;26.40;;;;;;6100044;28;83443;-63
2021/01/12 05:24:46;;;;;;;49.85;27.73;;;22.30;26.20;;;;;;6101182;28;85432;-64
2021/01/12 05:27:47;;;;;;;48.72;27.08;;;22.40;26.30;;;;;;6101544;28;83474;-62
2021/01/12 05:30:47;;;;;;;47.80;26.52;;;22.40;26.00;;;;;;6098620;28;83193;-63
2021/01/12 05:33:48;;;;;;;48.85;27.50;;;22.40;25.80;;;;;;6100381;28;83227;-63
2021/01/12 05:36:48;;;;;;;49.83;27.88;;;22.50;26.40;;;;;;6099068;28;84164;-63
2021/01/12 05:39:49;;;;;;;46.42;26.58;;;22.50;26.00;;;;;;6101949;28;83651;-63
2021/01/12 05:42:49;;;;;;;51.33;27.65;;;22.50;26.00;;;;;;6100951;28;83347;-63
2021/01/12 05:45:50;;;;;;;50.55;27.98;;;22.50;25.80;;;;;;6100382;28;83325;-63
2021/01/12 05:48:50;;;;;;;48.85;27.38;;;22.50;26.00;;;;;;6099551;28;86334;-62
2021/01/12 05:51:51;;;;;;;50.38;27.77;;;22.50;25.50;;;;;;6092288;28;83014;-62
2021/01/12 05:54:51;;;;;;;49.30;26.65;;;22.60;25.10;;;;;;6096154;28;83415;-62
2021/01/12 05:57:53;;;;;;;42.78;22.20;;;22.60;25.90;;;;;;6090729;28;83650;-62
2021/01/12 06:00:54;;;;;;;40.30;20.25;;;22.60;27.30;;;;;;6101051;28;83278;-63
2021/01/12 06:03:54;;;;;;;37.90;20.77;;;22.60;27.90;;;;;;6094812;28;83703;-63
2021/01/12 06:06:55;;;;;;;30.60;16.58;;;22.60;28.30;;;;;;6100055;28;82945;-63
2021/01/12 06:09:55;;;;;;;27.08;16.17;;;22.70;28.50;;;;;;6098053;28;84807;-63
2021/01/12 06:12:56;;;;;;;25.63;14.18;;;22.70;28.20;;;;;;6095531;28;83698;-63
2021/01/12 06:15:57;;;;;;;27.20;14.63;;;22.70;27.80;;;;;;6096264;28;83382;-63
2021/01/12 06:18:57;;;;;;;26.63;14.52;;;22.70;27.70;;;;;;6099506;28;83560;-63
2021/01/12 06:21:57;;;;;;;26.52;14.95;;;22.70;27.50;;;;;;6097832;28;83596;-65
2021/01/12 06:24:58;;;;;;;28.80;15.68;;;22.70;27.00;;;;;;6096049;28;84138;-64
2021/01/12 06:27:58;;;;;;;28.17;15.95;;;22.70;27.10;;;;;;6097002;28;83312;-64
2021/01/12 06:30:59;;;;;;;28.52;16.55;;;22.70;27.30;;;;;;6100892;28;83360;-63
2021/01/12 06:33:59;;;;;;;33.75;18.27;;;22.70;27.50;;;;;;6099481;28;83450;-63
2021/01/12 06:37:00;;;;;;;32.75;17.02;;;22.80;27.80;;;;;;6099568;28;83260;-63
2021/01/12 06:40:01;;;;;;;32.35;16.92;;;22.80;28.10;;;;;;6096951;28;83987;-62
2021/01/12 06:43:01;;;;;;;33.00;16.55;;;22.90;28.50;;;;;;6097689;28;83168;-62
2021/01/12 06:46:02;;;;;;;32.38;16.02;;;22.90;28.50;;;;;;6111085;28;84530;-71
2021/01/12 06:49:02;;;;;;;28.15;16.48;;;22.90;28.50;;;;;;6097816;28;84222;-67
2021/01/12 06:52:03;;;;;;;30.67;16.63;;;23.00;28.30;;;;;;6112172;28;83413;-63
2021/01/12 06:55:03;;;;;;;27.30;15.05;;;23.00;28.40;;;;;;6100053;28;83197;-68
2021/01/12 06:58:04;;;;;;;32.22;16.77;;;23.00;28.30;;;;;;6098529;28;83545;-68
2021/01/12 07:01:04;;;;;;;29.73;15.75;;;23.00;27.90;;;;;;6091237;28;83391;-68
2021/01/12 07:04:05;;;;;;;30.92;16.20;;;23.00;27.70;;;;;;6101003;28;84091;-68
2021/01/12 07:07:05;;;;;;;28.10;16.35;;;22.90;27.50;;;;;;6100944;28;83064;-66
2021/01/12 07:10:06;;;;;;;28.10;16.30;;;22.90;27.40;;;;;;6076873;28;83380;-69
2021/01/12 07:13:06;;;;;;;34.30;18.48;;;22.90;27.20;;;;;;6101839;28;83462;-68
2021/01/12 07:16:07;;;;;;;29.17;16.85;;;22.90;27.10;;;;;;6092395;28;83340;-67
2021/01/12 07:19:07;;;;;;;29.13;16.55;;;22.90;26.90;;;;;;6101054;28;83158;-68
2021/01/12 07:22:08;;;;;;;27.75;16.23;;;22.90;26.70;;;;;;6097603;28;83248;-66
2021/01/12 07:25:08;;;;;;;32.03;16.65;;;22.90;26.40;;;;;;6079423;28;83932;-72
2021/01/12 07:28:09;;;;;;;35.03;17.13;;;22.90;26.40;;;;;;6099707;28;83484;-69
2021/01/12 07:31:10;;;;;;;30.17;16.98;;;22.90;26.20;;;;;;6078210;28;83458;-67
2021/01/12 07:34:10;;;;;;;32.90;18.45;;;22.90;26.10;;;;;;6099185;28;83832;-67
2021/01/12 07:37:11;;;;;;;34.35;17.20;;;22.90;26.20;;;;;;6097213;28;85326;-68
2021/01/12 07:40:13;;;;;;;29.98;17.38;;;22.90;26.00;;;;;;6099465;28;84459;-67
2021/01/12 07:43:14;;;;;;;35.70;19.08;;;22.90;25.90;;;;;;6100969;28;83408;-68
2021/01/12 07:46:14;;;;;;;31.52;18.10;;;22.90;25.90;;;;;;6093961;28;84382;-67
2021/01/12 07:49:14;;;;;;;33.22;17.23;;;22.90;25.90;;;;;;6098930;28;83687;-67
2021/01/12 07:52:15;;;;;;;30.50;17.35;;;22.90;25.80;;;;;;6095980;28;83601;-67
2021/01/12 07:55:16;;;;;;;33.08;18.38;;;23.00;26.50;;;;;;6100997;28;83055;-69
2021/01/12 07:58:22;;;;;;;34.42;18.35;;;23.10;26.50;;;;;;6098789;28;83324;-67
2021/01/12 08:01:23;;;;;;;35.72;18.67;;;23.10;26.50;;;;;;6076873;28;83757;-66
2021/01/12 08:04:24;;;;;;;36.00;18.75;;;23.10;26.40;;;;;;6102719;28;83532;-66
2021/01/12 08:07:24;;;;;;;36.05;18.90;;;23.10;26.50;;;;;;6100735;28;83955;-66
2021/01/12 08:10:25;;;;;;;33.42;17.15;;;23.20;26.50;;;;;;6100676;28;85851;-66
2021/01/12 08:13:25;;;;;;;32.95;17.63;;;23.20;26.50;;;;;;6090453;28;83037;-67
2021/01/12 08:16:26;;;;;;;35.47;17.63;;;23.20;26.50;;;;;;6095142;28;85275;-66
2021/01/12 08:19:27;;;;;;;32.97;17.75;;;23.30;26.60;;;;;;6098637;28;83791;-66
2021/01/12 08:22:27;;;;;;;31.20;17.77;;;23.30;26.50;;;;;;6101534;28;85993;-66
2021/01/12 08:25:28;;;;;;;29.02;16.55;;;23.40;26.50;;;;;;6097397;28;84023;-67
2021/01/12 08:28:28;;;;;;;26.55;15.70;;;23.40;26.60;;;;;;6092083;28;84242;-67
2021/01/12 08:31:29;;;;;;;27.08;15.05;;;23.50;26.80;;;;;;6094988;28;83441;-67
2021/01/12 08:34:29;;;;;;;29.90;16.15;;;23.50;26.80;;;;;;6100731;28;84367;-66
2021/01/12 08:37:30;;;;;;;23.77;14.75;;;23.60;27.10;;;;;;6098246;28;84175;-67
2021/01/12 08:40:30;;;;;;;25.63;14.80;;;23.60;27.80;;;;;;6098010;28;83812;-67
2021/01/12 08:43:31;;;;;;;22.70;14.00;;;23.70;27.60;;;;;;6100774;28;85601;-66
2021/01/12 08:46:31;;;;;;;22.95;13.68;;;23.70;27.80;;;;;;6089734;28;83537;-67
2021/01/12 08:49:32;;;;;;;26.90;14.27;;;23.80;27.90;;;;;;6102683;28;86675;-68
2021/01/12 08:52:33;;;;;;;21.52;12.82;;;23.80;28.00;;;;;;6085473;28;87899;-67
2021/01/12 08:55:33;;;;;;;22.23;13.40;;;23.90;28.20;;;;;;6084400;28;88185;-67
2021/01/12 08:58:34;;;;;;;26.17;15.20;;;23.90;28.20;;;;;;6095063;28;84662;-66
2021/01/12 09:01:35;;;;;;;24.02;14.38;;;24.00;27.80;;;;;;6096583;28;82934;-66
2021/01/12 09:04:36;;;;;;;24.00;13.00;;;24.00;28.20;;;;;;6096868;28;84125;-66
2021/01/12 09:07:36;;;;;;;23.75;13.52;;;24.00;28.30;;;;;;6099268;28;83267;-65
2021/01/12 09:10:38;;;;;;;21.13;13.23;;;24.10;28.30;;;;;;6100728;28;83531;-66
2021/01/12 09:13:39;;;;;;;22.10;12.48;;;24.10;28.30;;;;;;6100188;28;83312;-65
2021/01/12 09:16:39;;;;;;;23.30;12.73;;;24.10;28.20;;;;;;6102398;28;83559;-65
2021/01/12 09:19:40;;;;;;;25.83;14.20;;;24.20;28.00;;;;;;6095792;28;84178;-65
2021/01/12 09:22:41;;;;;;;22.02;12.73;;;24.20;28.00;;;;;;6090239;28;84980;-66
2021/01/12 09:25:41;;;;;;;27.55;13.60;;;24.30;28.10;;;;;;6089857;28;84791;-67
2021/01/12 09:28:42;;;;;;;25.08;12.93;;;24.30;28.20;;;;;;6085705;28;83932;-66
2021/01/12 09:31:42;;;;;;;26.15;14.23;;;24.40;28.30;;;;;;6095964;28;91078;-66
2021/01/12 09:34:43;;;;;;;25.55;13.68;;;24.40;28.60;;;;;;6085667;28;83289;-67
2021/01/12 09:37:43;;;;;;;24.42;12.85;;;24.50;28.90;;;;;;6091135;28;83346;-67
2021/01/12 09:40:44;;;;;;;20.73;12.95;;;24.40;29.10;;;;;;6093609;28;83698;-66
2021/01/12 09:43:44;;;;;;;23.95;13.25;;;24.60;29.40;;;;;;6089982;28;84486;-65
2021/01/12 09:46:45;;;;;;;26.13;13.45;;;24.60;29.50;;;;;;6092446;28;83009;-67
2021/01/12 09:49:45;;;;;;;21.75;12.48;;;24.60;29.40;;;;;;6097870;28;83338;-66
2021/01/12 09:52:46;;;;;;;21.60;13.43;;;24.60;29.30;;;;;;6093944;28;83011;-66
2021/01/12 09:55:46;;;;;;;20.92;12.32;;;24.70;29.10;;;;;;6082445;28;84455;-66
2021/01/12 09:58:47;;;;;;;22.52;13.73;;;24.70;29.10;;;;;;6097433;28;83158;-66
2021/01/12 10:01:47;;;;;;;20.85;11.27;;;24.70;29.00;;;;;;6081674;28;83699;-67
2021/01/12 10:04:48;;;;;;;22.05;12.05;;;24.80;28.90;;;;;;6088470;28;83136;-68
2021/01/12 10:07:48;;;;;;;20.00;9.85;;;24.80;28.90;;;;;;6067692;28;83459;-66
2021/01/12 10:10:49;;;;;;;20.17;10.73;;;24.80;28.40;;;;;;6102839;28;83004;-67
2021/01/12 10:13:49;;;;;;;19.40;10.65;;;24.80;28.30;;;;;;6082507;28;83299;-66
2021/01/12 10:16:50;;;;;;;18.45;9.73;;;24.80;28.40;;;;;;6087833;28;83499;-66
2021/01/12 10:19:51;;;;;;;17.52;8.70;;;24.90;28.40;;;;;;6100888;28;84394;-66
2021/01/12 10:22:51;;;;;;;15.25;8.82;;;24.90;28.10;;;;;;6100388;28;81006;-65
2021/01/12 10:25:52;;;;;;;12.73;7.40;;;24.90;28.00;;;;;;6085651;28;80995;-66
2021/01/12 10:28:52;;;;;;;13.00;7.82;;;24.90;27.90;;;;;;6099297;28;89147;-65
2021/01/12 10:31:53;;;;;;;13.35;7.18;;;24.90;27.60;;;;;;6100442;28;80861;-66
2021/01/12 10:34:53;;;;;;;12.38;6.57;;;24.90;27.60;;;;;;6092333;28;81074;-66
2021/01/12 10:37:54;;;;;;;9.70;5.95;;;24.90;27.50;;;;;;6093927;28;81458;-66
2021/01/12 10:40:54;;;;;;;10.90;5.85;;;24.90;27.70;;;;;;6097022;28;81422;-67
2021/01/12 10:43:55;;;;;;;10.45;5.13;;;24.90;27.60;;;;;;6066107;28;80238;-68
2021/01/12 10:46:56;;;;;;;10.13;4.53;;;24.90;27.40;;;;;;6093913;28;80712;-67
2021/01/12 10:49:56;;;;;;;9.13;5.03;;;24.80;27.20;;;;;;6096906;28;80916;-67
2021/01/12 10:52:57;;;;;;;8.65;4.53;;;24.70;27.00;;;;;;6093062;28;80426;-66
2021/01/12 10:55:58;;;;;;;6.88;4.32;;;24.70;26.70;;;;;;6101179;28;81604;-66
2021/01/12 10:58:58;;;;;;;6.30;3.92;;;24.60;26.70;;;;;;6087421;28;81058;-67
2021/01/12 11:02:00;;;;;;;7.32;4.03;;;24.60;26.70;;;;;;6090696;28;80258;-68
2021/01/12 11:05:01;;;;;;;8.88;4.75;;;24.50;26.90;;;;;;6094548;28;81205;-66
2021/01/12 11:08:01;;;;;;;8.65;4.10;;;24.50;26.90;;;;;;6099049;28;81421;-68
2021/01/12 11:11:03;;;;;;;9.35;4.18;;;24.40;26.90;;;;;;6111316;28;83301;-68
2021/01/12 11:14:06;;;;;;;5.47;3.83;;;24.40;26.80;;;;;;6097007;28;81454;-67
2021/01/12 11:17:06;;;;;;;7.57;3.70;;;24.30;26.60;;;;;;6087043;28;81611;-66
2021/01/12 11:20:08;;;;;;;5.45;3.40;;;24.20;26.70;;;;;;6087892;28;80860;-66
2021/01/12 11:23:08;;;;;;;8.32;3.78;;;24.20;26.10;;;;;;6101317;28;81131;-66
2021/01/12 11:26:11;;;;;;;7.53;4.03;;;24.10;26.20;;;;;;6102120;28;81575;-67
2021/01/12 11:29:11;;;;;;;5.78;3.22;;;24.10;26.00;;;;;;6092022;28;80549;-65
2021/01/12 11:32:12;;;;;;;7.15;3.13;;;24.00;26.00;;;;;;6089325;28;80907;-66
2021/01/12 11:35:13;;;;;;;5.25;3.00;;;24.00;25.90;;;;;;6098340;28;81018;-66
2021/01/12 11:38:13;;;;;;;5.60;3.00;;;24.00;26.00;;;;;;6099995;28;81312;-68
2021/01/12 11:41:14;;;;;;;3.83;2.42;;;23.90;26.10;;;;;;6094865;28;80618;-65
2021/01/12 11:44:15;;;;;;;4.88;2.80;;;23.90;26.10;;;;;;6095778;28;80738;-63
2021/01/12 11:47:15;;;;;;;4.78;2.97;;;23.90;26.10;;;;;;6104926;28;80432;-65
2021/01/12 11:50:16;;;;;;;4.47;3.08;;;23.80;26.00;;;;;;6096111;28;80295;-67
2021/01/12 11:53:16;;;;;;;3.90;2.65;;;23.80;25.90;;;;;;6104778;28;80527;-66
2021/01/12 11:56:17;;;;;;;4.80;2.40;;;23.80;25.80;;;;;;6079204;28;80435;-65
2021/01/12 11:59:18;;;;;;;5.32;2.70;;;23.70;25.80;;;;;;6103782;28;82013;-65
2021/01/12 12:02:18;;;;;;;5.43;2.55;;;23.70;25.70;;;;;;6093562;28;81458;-65
2021/01/12 12:05:19;;;;;;;5.22;2.67;;;23.70;25.90;;;;;;6098953;28;80599;-67
2021/01/12 12:08:19;;;;;;;5.97;2.40;;;23.70;26.40;;;;;;6103399;28;83842;-66
2021/01/12 12:11:20;;;;;;;5.05;2.60;;;23.60;26.50;;;;;;6096014;28;80821;-65
2021/01/12 12:14:21;;;;;;;4.15;2.60;;;23.60;26.40;;;;;;6097102;28;81054;-69
2021/01/12 12:17:21;;;;;;;6.03;3.47;;;23.60;27.00;;;;;;6115648;28;83111;-65
2021/01/12 12:20:22;;;;;;;6.57;2.30;;;23.60;26.60;;;;;;6097692;28;81163;-65
2021/01/12 12:23:22;;;;;;;5.85;2.92;;;23.60;26.50;;;;;;6096634;28;81025;-65
2021/01/12 12:26:23;;;;;;;6.93;3.33;;;23.60;26.50;;;;;;6097710;28;80766;-67
2021/01/12 12:29:23;;;;;;;3.97;3.00;;;23.50;26.50;;;;;;6099027;28;81368;-65
2021/01/12 12:32:26;;;;;;;6.05;3.40;;;23.50;26.30;;;;;;6096073;28;80777;-67
2021/01/12 12:35:27;;;;;;;5.90;3.50;;;23.50;26.30;;;;;;6098337;28;83011;-66
2021/01/12 12:38:27;;;;;;;6.72;3.20;;;23.60;26.60;;;;;;6098458;28;80477;-66
2021/01/12 12:41:31;;;;;;;6.18;3.28;;;23.60;26.70;;;;;;6097137;28;80516;-65
2021/01/12 12:44:32;;;;;;;8.10;3.20;;;23.50;26.40;;;;;;6089636;28;81503;-65
2021/01/12 12:47:32;;;;;;;4.55;2.80;;;23.50;26.30;;;;;;6101368;28;80745;-65
2021/01/12 12:50:33;;;;;;;10.00;3.60;;;23.50;26.40;;;;;;6085272;28;81400;-65
2021/01/12 12:53:35;;;;;;;6.40;3.03;;;23.50;26.40;;;;;;6105946;28;84437;-65
2021/01/12 12:56:36;;;;;;;5.65;3.58;;;23.50;26.50;;;;;;6100078;28;80333;-65
2021/01/12 12:59:36;;;;;;;5.15;3.13;;;23.50;26.70;;;;;;6100924;28;80523;-65
2021/01/12 13:02:37;;;;;;;6.40;2.97;;;23.50;26.60;;;;;;6110107;28;80500;-64
2021/01/12 13:05:37;;;;;;;6.15;3.58;;;23.50;26.40;;;;;;6103586;28;80511;-65
2021/01/12 13:08:38;;;;;;;5.88;3.35;;;23.50;26.50;;;;;;6099112;28;80234;-65
2021/01/12 13:11:38;;;;;;;7.13;3.55;;;23.50;26.60;;;;;;6099165;28;82679;-65
2021/01/12 13:14:39;;;;;;;5.40;3.50;;;23.50;26.60;;;;;;6104974;28;80913;-65
2021/01/12 13:17:39;;;;;;;5.88;3.55;;;23.50;26.70;;;;;;6102115;28;80441;-66
2021/01/12 13:20:40;;;;;;;6.10;3.78;;;23.50;26.80;;;;;;6100822;28;80592;-67
2021/01/12 13:23:41;;;;;;;8.95;3.25;;;23.50;26.80;;;;;;6095918;28;81065;-66
2021/01/12 13:26:41;;;;;;;5.80;3.35;;;23.50;26.80;;;;;;6105110;28;80668;-66
2021/01/12 13:29:42;;;;;;;5.20;3.70;;;23.50;26.80;;;;;;6095365;28;81123;-66
2021/01/12 13:32:42;;;;;;;6.10;3.60;;;23.50;26.80;;;;;;6104255;28;81425;-66
2021/01/12 13:35:43;;;;;;;8.00;3.92;;;23.50;26.90;;;;;;6095589;28;80560;-66
2021/01/12 13:38:43;;;;;;;7.13;3.70;;;23.50;26.80;;;;;;6095918;28;80602;-66
2021/01/12 13:41:44;;;;;;;7.38;4.03;;;23.50;26.90;;;;;;6104037;28;81716;-66
2021/01/12 13:44:44;;;;;;;7.90;4.38;;;23.40;26.80;;;;;;6101571;28;81630;-67
2021/01/12 13:47:45;;;;;;;11.90;5.32;;;23.50;27.00;;;;;;6095638;28;80450;-68
2021/01/12 13:50:46;;;;;;;8.63;4.90;;;23.50;26.70;;;;;;6095827;28;80834;-69
2021/01/12 13:53:48;;;;;;;9.48;5.32;;;23.60;26.70;;;;;;6104289;28;80749;-68
2021/01/12 13:56:49;;;;;;;9.57;5.20;;;23.60;26.80;;;;;;6102668;28;81096;-66
2021/01/12 13:59:49;;;;;;;9.27;5.53;;;23.70;27.50;;;;;;6096224;28;80826;-65
2021/01/12 14:02:53;;;;;;;8.13;5.35;;;23.70;27.00;;;;;;6098128;28;80457;-65
2021/01/12 14:05:53;;;;;;;9.68;5.20;;;23.70;26.90;;;;;;6098332;28;80769;-67
2021/01/12 14:08:54;;;;;;;8.65;5.10;;;23.70;26.70;;;;;;6101180;28;80822;-68
2021/01/12 14:11:54;;;;;;;8.90;5.05;;;23.70;26.80;;;;;;6099386;28;80374;-66
2021/01/12 14:14:55;;;;;;;9.50;5.25;;;23.70;27.00;;;;;;6100410;28;81473;-66
2021/01/12 14:17:56;;;;;;;11.25;5.50;;;23.70;27.20;;;;;;6102724;28;80702;-65
2021/01/12 14:20:56;;;;;;;8.68;4.65;;;23.70;27.50;;;;;;6100612;28;81531;-66
2021/01/12 14:23:57;;;;;;;8.85;5.03;;;23.70;27.60;;;;;;6103270;28;80480;-66
2021/01/12 14:26:57;;;;;;;8.80;5.00;;;23.70;27.80;;;;;;6104833;28;80906;-66
2021/01/12 14:30:00;;;;;;;8.23;4.82;;;23.70;27.80;;;;;;6101518;28;81202;-69
2021/01/12 14:33:00;;;;;;;9.48;5.68;;;23.70;27.50;;;;;;6100033;28;90861;-64
2021/01/12 14:36:01;;;;;;;10.55;5.15;;;23.70;27.30;;;;;;6093466;28;80379;-64
2021/01/12 14:39:01;;;;;;;9.85;5.68;;;23.70;27.70;;;;;;6101132;28;80877;-64
2021/01/12 14:42:02;;;;;;;8.80;4.78;;;23.60;27.40;;;;;;6097888;28;80375;-65
2021/01/12 14:45:02;;;;;;;7.30;4.85;;;23.60;27.90;;;;;;6097847;28;81809;-65
2021/01/12 14:48:03;;;;;;;8.82;5.20;;;23.60;27.30;;;;;;6113754;28;80986;-64
2021/01/12 14:51:03;;;;;;;9.77;5.72;;;23.60;27.40;;;;;;6100553;28;80761;-66
2021/01/12 14:54:04;;;;;;;9.38;5.13;;;23.60;27.50;;;;;;6097107;28;80686;-65
2021/01/12 14:57:05;;;;;;;10.52;5.05;;;23.60;27.70;;;;;;6091716;28;80281;-64
2021/01/12 15:00:05;;;;;;;9.65;4.85;;;23.60;27.70;;;;;;6091310;28;84250;-65
2021/01/12 15:03:06;;;;;;;11.50;5.10;;;23.60;27.60;;;;;;6090925;28;80704;-65
2021/01/12 15:06:06;;;;;;;11.00;4.97;;;23.50;27.60;;;;;;6100983;28;81581;-65
2021/01/12 15:09:07;;;;;;;9.48;4.75;;;23.50;27.70;;;;;;6109683;28;80913;-64
2021/01/12 15:12:07;;;;;;;8.68;5.40;;;23.50;27.60;;;;;;6101366;28;80740;-65
2021/01/12 15:15:08;;;;;;;9.15;5.13;;;23.50;27.70;;;;;;6094410;28;80508;-65
2021/01/12 15:18:08;;;;;;;8.05;4.68;;;23.50;27.50;;;;;;6105011;28;80630;-66
2021/01/12 15:21:09;;;;;;;8.98;4.95;;;23.50;27.60;;;;;;6105894;28;80936;-66
2021/01/12 15:24:09;;;;;;;9.30;4.93;;;23.50;27.70;;;;;;6098541;28;82326;-65